sensor_id;sensor_type;location;lat;lon;timestamp;P1;durP1;ratioP1;P2;durP2;ratioP2
13807;SDS011;40769;51.512;5.494;2023-08-30T00:00:18;2.63;;;2.42;;
13807;SDS011;40769;51.512;5.494;2023-08-30T00:02:46;2.60;;;2.42;;
13807;SDS011;40769;51.512;5.494;2023-08-30T00:05:12;2.25;;;2.10;;
13807;SDS011;40769;51.512;5.494;2023-08-30T00:07:41;2.55;;;2.35;;
13807;SDS011;40769;51.512;5.494;2023-08-30T00:10:07;2.42;;;2.25;;
13807;SDS011;40769;51.512;5.494;2023-08-30T00:12:35;2.60;;;2.30;;
13807;SDS011;40769;51.512;5.494;2023-08-30T00:15:04;3.00;;;2.75;;
13807;SDS011;40769;51.512;5.494;2023-08-30T00:17:30;2.38;;;2.20;;
13807;SDS011;40769;51.512;5.494;2023-08-30T00:19:55;2.13;;;2.03;;
13807;SDS011;40769;51.512;5.494;2023-08-30T00:22:21;1.98;;;1.88;;
13807;SDS011;40769;51.512;5.494;2023-08-30T00:24:48;2.35;;;2.15;;
13807;SDS011;40769;51.512;5.494;2023-08-30T00:27:14;2.17;;;1.98;;
13807;SDS011;40769;51.512;5.494;2023-08-30T00:29:39;2.75;;;2.55;;
13807;SDS011;40769;51.512;5.494;2023-08-30T00:32:05;2.15;;;2.03;;
13807;SDS011;40769;51.512;5.494;2023-08-30T00:34:31;2.70;;;2.50;;
13807;SDS011;40769;51.512;5.494;2023-08-30T00:36:56;2.53;;;2.33;;
13807;SDS011;40769;51.512;5.494;2023-08-30T00:39:22;2.58;;;2.38;;
13807;SDS011;40769;51.512;5.494;2023-08-30T00:41:48;2.58;;;2.38;;
13807;SDS011;40769;51.512;5.494;2023-08-30T00:44:13;2.35;;;2.15;;
13807;SDS011;40769;51.512;5.494;2023-08-30T00:46:39;2.60;;;2.40;;
13807;SDS011;40769;51.512;5.494;2023-08-30T00:49:05;3.00;;;2.80;;
13807;SDS011;40769;51.512;5.494;2023-08-30T00:51:31;2.92;;;2.72;;
13807;SDS011;40769;51.512;5.494;2023-08-30T00:53:58;2.90;;;2.70;;
13807;SDS011;40769;51.512;5.494;2023-08-30T00:56:25;2.50;;;2.30;;
13807;SDS011;40769;51.512;5.494;2023-08-30T00:58:52;2.42;;;2.22;;
13807;SDS011;40769;51.512;5.494;2023-08-30T01:01:19;2.70;;;2.50;;
13807;SDS011;40769;51.512;5.494;2023-08-30T01:03:45;2.38;;;2.17;;
13807;SDS011;40769;51.512;5.494;2023-08-30T01:06:11;2.70;;;2.33;;
13807;SDS011;40769;51.512;5.494;2023-08-30T01:08:38;2.38;;;2.17;;
13807;SDS011;40769;51.512;5.494;2023-08-30T01:11:08;2.65;;;2.45;;
13807;SDS011;40769;51.512;5.494;2023-08-30T01:13:40;2.33;;;2.15;;
13807;SDS011;40769;51.512;5.494;2023-08-30T01:16:12;2.40;;;2.30;;
13807;SDS011;40769;51.512;5.494;2023-08-30T01:18:38;3.42;;;3.13;;
13807;SDS011;40769;51.512;5.494;2023-08-30T01:21:09;2.88;;;2.67;;
13807;SDS011;40769;51.512;5.494;2023-08-30T01:23:52;3.78;;;3.47;;
13807;SDS011;40769;51.512;5.494;2023-08-30T01:26:29;3.40;;;3.10;;
13807;SDS011;40769;51.512;5.494;2023-08-30T01:29:11;3.17;;;2.92;;
13807;SDS011;40769;51.512;5.494;2023-08-30T01:31:37;2.20;;;2.10;;
13807;SDS011;40769;51.512;5.494;2023-08-30T01:34:05;2.65;;;2.45;;
13807;SDS011;40769;51.512;5.494;2023-08-30T01:36:31;3.67;;;3.38;;
13807;SDS011;40769;51.512;5.494;2023-08-30T01:38:58;4.13;;;3.83;;
13807;SDS011;40769;51.512;5.494;2023-08-30T01:41:25;3.13;;;2.92;;
13807;SDS011;40769;51.512;5.494;2023-08-30T01:43:53;3.30;;;3.10;;
13807;SDS011;40769;51.512;5.494;2023-08-30T01:46:20;4.20;;;3.80;;
13807;SDS011;40769;51.512;5.494;2023-08-30T01:48:47;4.07;;;3.78;;
13807;SDS011;40769;51.512;5.494;2023-08-30T01:51:17;3.40;;;3.10;;
13807;SDS011;40769;51.512;5.494;2023-08-30T01:53:43;2.85;;;2.55;;
13807;SDS011;40769;51.512;5.494;2023-08-30T01:56:09;2.67;;;2.47;;
13807;SDS011;40769;51.512;5.494;2023-08-30T01:58:35;2.83;;;2.63;;
13807;SDS011;40769;51.512;5.494;2023-08-30T02:01:01;2.70;;;2.50;;
13807;SDS011;40769;51.512;5.494;2023-08-30T02:03:27;2.75;;;2.55;;
13807;SDS011;40769;51.512;5.494;2023-08-30T02:06:09;2.92;;;2.72;;
13807;SDS011;40769;51.512;5.494;2023-08-30T02:08:43;2.65;;;2.45;;
13807;SDS011;40769;51.512;5.494;2023-08-30T02:11:26;2.25;;;2.15;;
13807;SDS011;40769;51.512;5.494;2023-08-30T02:13:52;2.97;;;2.78;;
13807;SDS011;40769;51.512;5.494;2023-08-30T02:16:22;2.25;;;2.05;;
13807;SDS011;40769;51.512;5.494;2023-08-30T02:18:49;2.60;;;2.40;;
13807;SDS011;40769;51.512;5.494;2023-08-30T02:21:15;2.88;;;2.67;;
13807;SDS011;40769;51.512;5.494;2023-08-30T02:23:42;2.75;;;2.55;;
13807;SDS011;40769;51.512;5.494;2023-08-30T02:26:07;2.78;;;2.58;;
13807;SDS011;40769;51.512;5.494;2023-08-30T02:28:33;2.65;;;2.45;;
13807;SDS011;40769;51.512;5.494;2023-08-30T02:30:58;2.60;;;2.50;;
13807;SDS011;40769;51.512;5.494;2023-08-30T02:33:24;2.55;;;2.35;;
13807;SDS011;40769;51.512;5.494;2023-08-30T02:35:50;2.70;;;2.50;;
13807;SDS011;40769;51.512;5.494;2023-08-30T02:38:15;3.25;;;2.95;;
13807;SDS011;40769;51.512;5.494;2023-08-30T02:40:42;2.90;;;2.70;;
13807;SDS011;40769;51.512;5.494;2023-08-30T02:43:11;3.30;;;3.10;;
13807;SDS011;40769;51.512;5.494;2023-08-30T02:45:36;3.30;;;3.00;;
13807;SDS011;40769;51.512;5.494;2023-08-30T02:48:02;3.30;;;3.00;;
13807;SDS011;40769;51.512;5.494;2023-08-30T02:50:29;3.13;;;2.92;;
13807;SDS011;40769;51.512;5.494;2023-08-30T02:52:54;3.30;;;3.00;;
13807;SDS011;40769;51.512;5.494;2023-08-30T02:55:20;3.88;;;3.58;;
13807;SDS011;40769;51.512;5.494;2023-08-30T02:57:45;3.30;;;3.00;;
13807;SDS011;40769;51.512;5.494;2023-08-30T03:00:12;3.55;;;3.33;;
13807;SDS011;40769;51.512;5.494;2023-08-30T03:02:38;3.70;;;3.40;;
13807;SDS011;40769;51.512;5.494;2023-08-30T03:05:04;3.78;;;3.47;;
13807;SDS011;40769;51.512;5.494;2023-08-30T03:07:30;3.60;;;3.30;;
13807;SDS011;40769;51.512;5.494;2023-08-30T03:09:56;3.72;;;3.42;;
13807;SDS011;40769;51.512;5.494;2023-08-30T03:12:21;3.80;;;3.50;;
13807;SDS011;40769;51.512;5.494;2023-08-30T03:14:47;3.90;;;3.60;;
13807;SDS011;40769;51.512;5.494;2023-08-30T03:17:14;4.32;;;3.92;;
13807;SDS011;40769;51.512;5.494;2023-08-30T03:19:39;4.07;;;3.78;;
13807;SDS011;40769;51.512;5.494;2023-08-30T03:22:05;3.97;;;3.67;;
13807;SDS011;40769;51.512;5.494;2023-08-30T03:24:30;3.88;;;3.58;;
13807;SDS011;40769;51.512;5.494;2023-08-30T03:26:56;3.55;;;3.30;;
13807;SDS011;40769;51.512;5.494;2023-08-30T03:29:22;3.15;;;2.95;;
13807;SDS011;40769;51.512;5.494;2023-08-30T03:31:47;3.38;;;3.08;;
13807;SDS011;40769;51.512;5.494;2023-08-30T03:34:13;3.55;;;3.25;;
13807;SDS011;40769;51.512;5.494;2023-08-30T03:36:40;3.65;;;3.35;;
13807;SDS011;40769;51.512;5.494;2023-08-30T03:39:08;5.03;;;4.55;;
13807;SDS011;40769;51.512;5.494;2023-08-30T03:41:34;4.82;;;4.45;;
13807;SDS011;40769;51.512;5.494;2023-08-30T03:44:00;3.65;;;3.35;;
13807;SDS011;40769;51.512;5.494;2023-08-30T03:46:26;3.75;;;3.45;;
13807;SDS011;40769;51.512;5.494;2023-08-30T03:48:51;3.17;;;2.97;;
13807;SDS011;40769;51.512;5.494;2023-08-30T03:51:17;3.50;;;3.20;;
13807;SDS011;40769;51.512;5.494;2023-08-30T03:53:43;5.93;;;5.43;;
13807;SDS011;40769;51.512;5.494;2023-08-30T03:56:08;4.80;;;4.45;;
13807;SDS011;40769;51.512;5.494;2023-08-30T03:58:34;6.07;;;5.65;;
13807;SDS011;40769;51.512;5.494;2023-08-30T04:01:00;6.50;;;5.90;;
13807;SDS011;40769;51.512;5.494;2023-08-30T04:03:25;6.78;;;6.18;;
13807;SDS011;40769;51.512;5.494;2023-08-30T04:05:57;6.28;;;5.68;;
13807;SDS011;40769;51.512;5.494;2023-08-30T04:08:23;5.00;;;4.60;;
13807;SDS011;40769;51.512;5.494;2023-08-30T04:10:51;6.78;;;6.20;;
13807;SDS011;40769;51.512;5.494;2023-08-30T04:13:18;7.78;;;7.05;;
13807;SDS011;40769;51.512;5.494;2023-08-30T04:15:43;7.22;;;6.53;;
13807;SDS011;40769;51.512;5.494;2023-08-30T04:18:09;5.72;;;5.32;;
13807;SDS011;40769;51.512;5.494;2023-08-30T04:20:35;7.22;;;6.63;;
13807;SDS011;40769;51.512;5.494;2023-08-30T04:23:01;7.13;;;6.45;;
13807;SDS011;40769;51.512;5.494;2023-08-30T04:25:28;5.47;;;5.00;;
13807;SDS011;40769;51.512;5.494;2023-08-30T04:27:54;5.45;;;5.05;;
13807;SDS011;40769;51.512;5.494;2023-08-30T04:30:20;7.63;;;6.97;;
13807;SDS011;40769;51.512;5.494;2023-08-30T04:32:45;5.07;;;4.68;;
13807;SDS011;40769;51.512;5.494;2023-08-30T04:35:12;6.18;;;5.68;;
13807;SDS011;40769;51.512;5.494;2023-08-30T04:37:38;6.95;;;6.35;;
13807;SDS011;40769;51.512;5.494;2023-08-30T04:40:07;6.70;;;6.10;;
13807;SDS011;40769;51.512;5.494;2023-08-30T04:42:34;6.47;;;5.88;;
13807;SDS011;40769;51.512;5.494;2023-08-30T04:45:00;7.40;;;6.90;;
13807;SDS011;40769;51.512;5.494;2023-08-30T04:47:27;8.98;;;8.25;;
13807;SDS011;40769;51.512;5.494;2023-08-30T04:49:54;7.80;;;7.20;;
13807;SDS011;40769;51.512;5.494;2023-08-30T04:52:20;5.47;;;5.00;;
13807;SDS011;40769;51.512;5.494;2023-08-30T04:54:45;6.10;;;5.63;;
13807;SDS011;40769;51.512;5.494;2023-08-30T04:57:11;4.95;;;4.60;;
13807;SDS011;40769;51.512;5.494;2023-08-30T04:59:39;5.80;;;4.63;;
13807;SDS011;40769;51.512;5.494;2023-08-30T05:02:06;5.38;;;4.95;;
13807;SDS011;40769;51.512;5.494;2023-08-30T05:04:31;7.03;;;6.38;;
13807;SDS011;40769;51.512;5.494;2023-08-30T05:06:57;4.80;;;4.40;;
13807;SDS011;40769;51.512;5.494;2023-08-30T05:09:23;4.97;;;4.57;;
13807;SDS011;40769;51.512;5.494;2023-08-30T05:11:50;7.78;;;6.80;;
13807;SDS011;40769;51.512;5.494;2023-08-30T05:14:16;7.38;;;6.78;;
13807;SDS011;40769;51.512;5.494;2023-08-30T05:16:42;8.88;;;8.07;;
13807;SDS011;40769;51.512;5.494;2023-08-30T05:19:07;9.85;;;8.93;;
13807;SDS011;40769;51.512;5.494;2023-08-30T05:21:33;8.98;;;8.23;;
13807;SDS011;40769;51.512;5.494;2023-08-30T05:23:59;9.45;;;8.65;;
13807;SDS011;40769;51.512;5.494;2023-08-30T05:26:24;8.00;;;7.30;;
13807;SDS011;40769;51.512;5.494;2023-08-30T05:28:50;8.15;;;7.55;;
13807;SDS011;40769;51.512;5.494;2023-08-30T05:31:16;9.90;;;9.00;;
13807;SDS011;40769;51.512;5.494;2023-08-30T05:33:41;8.77;;;7.95;;
13807;SDS011;40769;51.512;5.494;2023-08-30T05:36:07;6.93;;;6.32;;
13807;SDS011;40769;51.512;5.494;2023-08-30T05:38:32;8.20;;;7.47;;
13807;SDS011;40769;51.512;5.494;2023-08-30T05:40:58;6.95;;;6.43;;
13807;SDS011;40769;51.512;5.494;2023-08-30T05:43:23;6.55;;;6.05;;
13807;SDS011;40769;51.512;5.494;2023-08-30T05:45:49;9.63;;;6.47;;
13807;SDS011;40769;51.512;5.494;2023-08-30T05:48:15;7.10;;;6.50;;
13807;SDS011;40769;51.512;5.494;2023-08-30T05:50:40;6.25;;;5.65;;
13807;SDS011;40769;51.512;5.494;2023-08-30T05:53:06;7.43;;;6.82;;
13807;SDS011;40769;51.512;5.494;2023-08-30T05:55:32;6.32;;;5.82;;
13807;SDS011;40769;51.512;5.494;2023-08-30T05:57:58;9.27;;;8.40;;
13807;SDS011;40769;51.512;5.494;2023-08-30T06:00:23;6.28;;;5.78;;
13807;SDS011;40769;51.512;5.494;2023-08-30T06:02:51;4.70;;;4.35;;
13807;SDS011;40769;51.512;5.494;2023-08-30T06:05:16;5.88;;;5.38;;
13807;SDS011;40769;51.512;5.494;2023-08-30T06:07:42;6.38;;;5.88;;
13807;SDS011;40769;51.512;5.494;2023-08-30T06:10:09;7.18;;;6.57;;
13807;SDS011;40769;51.512;5.494;2023-08-30T06:12:35;8.23;;;7.57;;
13807;SDS011;40769;51.512;5.494;2023-08-30T06:15:01;7.10;;;6.50;;
13807;SDS011;40769;51.512;5.494;2023-08-30T06:17:26;6.28;;;5.78;;
13807;SDS011;40769;51.512;5.494;2023-08-30T06:19:52;7.30;;;6.72;;
13807;SDS011;40769;51.512;5.494;2023-08-30T06:22:18;5.90;;;5.40;;
13807;SDS011;40769;51.512;5.494;2023-08-30T06:24:43;7.03;;;6.35;;
13807;SDS011;40769;51.512;5.494;2023-08-30T06:27:09;8.07;;;7.38;;
13807;SDS011;40769;51.512;5.494;2023-08-30T06:29:34;7.97;;;7.28;;
13807;SDS011;40769;51.512;5.494;2023-08-30T06:32:00;6.75;;;6.25;;
13807;SDS011;40769;51.512;5.494;2023-08-30T06:34:26;7.75;;;7.13;;
13807;SDS011;40769;51.512;5.494;2023-08-30T06:36:51;6.85;;;6.32;;
13807;SDS011;40769;51.512;5.494;2023-08-30T06:39:17;6.90;;;6.35;;
13807;SDS011;40769;51.512;5.494;2023-08-30T06:41:43;6.82;;;6.22;;
13807;SDS011;40769;51.512;5.494;2023-08-30T06:44:08;7.00;;;6.40;;
13807;SDS011;40769;51.512;5.494;2023-08-30T06:46:34;6.32;;;5.82;;
13807;SDS011;40769;51.512;5.494;2023-08-30T06:48:59;7.63;;;6.97;;
13807;SDS011;40769;51.512;5.494;2023-08-30T06:51:25;8.43;;;7.63;;
13807;SDS011;40769;51.512;5.494;2023-08-30T06:53:51;7.72;;;6.90;;
13807;SDS011;40769;51.512;5.494;2023-08-30T06:56:16;7.10;;;6.50;;
13807;SDS011;40769;51.512;5.494;2023-08-30T06:58:42;7.70;;;6.57;;
13807;SDS011;40769;51.512;5.494;2023-08-30T07:01:08;8.52;;;7.80;;
13807;SDS011;40769;51.512;5.494;2023-08-30T07:03:33;8.32;;;7.63;;
13807;SDS011;40769;51.512;5.494;2023-08-30T07:05:59;6.28;;;5.68;;
13807;SDS011;40769;51.512;5.494;2023-08-30T07:08:24;7.18;;;6.55;;
13807;SDS011;40769;51.512;5.494;2023-08-30T07:10:51;9.07;;;7.05;;
13807;SDS011;40769;51.512;5.494;2023-08-30T07:13:17;9.55;;;8.40;;
13807;SDS011;40769;51.512;5.494;2023-08-30T07:15:43;10.35;;;9.55;;
13807;SDS011;40769;51.512;5.494;2023-08-30T07:18:08;8.90;;;8.07;;
13807;SDS011;40769;51.512;5.494;2023-08-30T07:20:35;8.95;;;8.15;;
13807;SDS011;40769;51.512;5.494;2023-08-30T07:23:03;9.85;;;8.95;;
13807;SDS011;40769;51.512;5.494;2023-08-30T07:25:29;9.48;;;8.32;;
13807;SDS011;40769;51.512;5.494;2023-08-30T07:27:56;9.45;;;8.65;;
13807;SDS011;40769;51.512;5.494;2023-08-30T07:30:22;8.82;;;8.02;;
13807;SDS011;40769;51.512;5.494;2023-08-30T07:32:48;10.85;;;9.48;;
13807;SDS011;40769;51.512;5.494;2023-08-30T07:35:13;9.02;;;8.23;;
13807;SDS011;40769;51.512;5.494;2023-08-30T07:37:39;9.45;;;8.63;;
13807;SDS011;40769;51.512;5.494;2023-08-30T07:40:05;10.13;;;9.13;;
13807;SDS011;40769;51.512;5.494;2023-08-30T07:42:32;9.75;;;8.82;;
13807;SDS011;40769;51.512;5.494;2023-08-30T07:44:58;9.02;;;8.23;;
13807;SDS011;40769;51.512;5.494;2023-08-30T07:47:23;9.32;;;8.43;;
13807;SDS011;40769;51.512;5.494;2023-08-30T07:49:49;9.40;;;8.50;;
13807;SDS011;40769;51.512;5.494;2023-08-30T07:52:15;8.05;;;7.25;;
13807;SDS011;40769;51.512;5.494;2023-08-30T07:54:43;7.60;;;6.95;;
13807;SDS011;40769;51.512;5.494;2023-08-30T07:57:09;8.85;;;8.05;;
13807;SDS011;40769;51.512;5.494;2023-08-30T07:59:35;7.80;;;7.20;;
13807;SDS011;40769;51.512;5.494;2023-08-30T08:02:04;7.07;;;6.40;;
13807;SDS011;40769;51.512;5.494;2023-08-30T08:04:35;7.93;;;7.25;;
13807;SDS011;40769;51.512;5.494;2023-08-30T08:07:01;7.43;;;6.72;;
13807;SDS011;40769;51.512;5.494;2023-08-30T08:09:29;7.25;;;6.65;;
13807;SDS011;40769;51.512;5.494;2023-08-30T08:11:56;7.18;;;6.53;;
13807;SDS011;40769;51.512;5.494;2023-08-30T08:14:25;7.43;;;6.80;;
13807;SDS011;40769;51.512;5.494;2023-08-30T08:16:51;6.90;;;6.30;;
13807;SDS011;40769;51.512;5.494;2023-08-30T08:19:16;6.47;;;5.88;;
13807;SDS011;40769;51.512;5.494;2023-08-30T08:21:42;6.38;;;5.88;;
13807;SDS011;40769;51.512;5.494;2023-08-30T08:24:08;6.75;;;6.15;;
13807;SDS011;40769;51.512;5.494;2023-08-30T08:26:33;6.30;;;5.72;;
13807;SDS011;40769;51.512;5.494;2023-08-30T08:28:59;6.60;;;6.05;;
13807;SDS011;40769;51.512;5.494;2023-08-30T08:31:25;6.57;;;6.05;;
13807;SDS011;40769;51.512;5.494;2023-08-30T08:33:51;8.45;;;7.65;;
13807;SDS011;40769;51.512;5.494;2023-08-30T08:36:29;7.95;;;7.03;;
13807;SDS011;40769;51.512;5.494;2023-08-30T08:38:55;6.28;;;5.68;;
13807;SDS011;40769;51.512;5.494;2023-08-30T08:41:22;6.60;;;6.00;;
13807;SDS011;40769;51.512;5.494;2023-08-30T08:43:56;6.78;;;6.20;;
13807;SDS011;40769;51.512;5.494;2023-08-30T08:46:22;6.50;;;5.90;;
13807;SDS011;40769;51.512;5.494;2023-08-30T08:48:50;6.68;;;5.95;;
13807;SDS011;40769;51.512;5.494;2023-08-30T08:51:17;6.40;;;5.80;;
13807;SDS011;40769;51.512;5.494;2023-08-30T08:53:43;5.85;;;5.35;;
13807;SDS011;40769;51.512;5.494;2023-08-30T08:56:09;6.50;;;5.70;;
13807;SDS011;40769;51.512;5.494;2023-08-30T08:58:36;6.22;;;5.72;;
13807;SDS011;40769;51.512;5.494;2023-08-30T09:01:05;6.60;;;6.00;;
13807;SDS011;40769;51.512;5.494;2023-08-30T09:03:33;5.30;;;4.90;;
13807;SDS011;40769;51.512;5.494;2023-08-30T09:06:01;5.55;;;5.05;;
13807;SDS011;40769;51.512;5.494;2023-08-30T09:08:31;5.45;;;4.95;;
13807;SDS011;40769;51.512;5.494;2023-08-30T09:10:56;5.53;;;5.07;;
13807;SDS011;40769;51.512;5.494;2023-08-30T09:13:22;5.65;;;5.15;;
13807;SDS011;40769;51.512;5.494;2023-08-30T09:15:48;7.03;;;6.10;;
13807;SDS011;40769;51.512;5.494;2023-08-30T09:18:17;5.65;;;5.22;;
13807;SDS011;40769;51.512;5.494;2023-08-30T09:20:44;5.88;;;5.38;;
13807;SDS011;40769;51.512;5.494;2023-08-30T09:23:16;4.93;;;4.53;;
13807;SDS011;40769;51.512;5.494;2023-08-30T09:25:45;5.05;;;4.65;;
13807;SDS011;40769;51.512;5.494;2023-08-30T09:28:12;5.10;;;4.68;;
13807;SDS011;40769;51.512;5.494;2023-08-30T09:30:38;5.47;;;4.97;;
13807;SDS011;40769;51.512;5.494;2023-08-30T09:33:04;5.45;;;4.95;;
13807;SDS011;40769;51.512;5.494;2023-08-30T09:35:30;5.38;;;4.97;;
13807;SDS011;40769;51.512;5.494;2023-08-30T09:37:57;5.15;;;4.75;;
13807;SDS011;40769;51.512;5.494;2023-08-30T09:40:22;4.70;;;4.30;;
13807;SDS011;40769;51.512;5.494;2023-08-30T09:42:48;5.63;;;5.13;;
13807;SDS011;40769;51.512;5.494;2023-08-30T09:45:32;5.15;;;4.75;;
13807;SDS011;40769;51.512;5.494;2023-08-30T09:47:58;4.50;;;4.15;;
13807;SDS011;40769;51.512;5.494;2023-08-30T09:50:29;5.20;;;4.70;;
13807;SDS011;40769;51.512;5.494;2023-08-30T09:53:00;5.20;;;4.78;;
13807;SDS011;40769;51.512;5.494;2023-08-30T09:55:34;5.38;;;4.97;;
13807;SDS011;40769;51.512;5.494;2023-08-30T09:58:04;4.40;;;4.10;;
13807;SDS011;40769;51.512;5.494;2023-08-30T10:00:31;5.55;;;5.05;;
13807;SDS011;40769;51.512;5.494;2023-08-30T10:02:58;5.10;;;4.70;;
13807;SDS011;40769;51.512;5.494;2023-08-30T10:05:25;5.55;;;5.10;;
13807;SDS011;40769;51.512;5.494;2023-08-30T10:07:54;6.25;;;5.75;;
13807;SDS011;40769;51.512;5.494;2023-08-30T10:10:24;5.82;;;5.30;;
13807;SDS011;40769;51.512;5.494;2023-08-30T10:12:51;6.25;;;5.65;;
13807;SDS011;40769;51.512;5.494;2023-08-30T10:15:19;6.28;;;5.68;;
13807;SDS011;40769;51.512;5.494;2023-08-30T10:17:46;6.93;;;6.32;;
13807;SDS011;40769;51.512;5.494;2023-08-30T10:20:16;8.90;;;8.10;;
13807;SDS011;40769;51.512;5.494;2023-08-30T10:22:42;7.95;;;6.82;;
13807;SDS011;40769;51.512;5.494;2023-08-30T10:25:11;8.00;;;6.75;;
13807;SDS011;40769;51.512;5.494;2023-08-30T10:27:42;9.05;;;8.25;;
13807;SDS011;40769;51.512;5.494;2023-08-30T10:30:11;10.15;;;9.27;;
13807;SDS011;40769;51.512;5.494;2023-08-30T10:32:39;9.70;;;8.80;;
13807;SDS011;40769;51.512;5.494;2023-08-30T10:35:05;8.35;;;7.65;;
13807;SDS011;40769;51.512;5.494;2023-08-30T10:37:31;7.25;;;6.65;;
13807;SDS011;40769;51.512;5.494;2023-08-30T10:40:00;9.13;;;8.27;;
13807;SDS011;40769;51.512;5.494;2023-08-30T10:42:28;8.73;;;7.93;;
13807;SDS011;40769;51.512;5.494;2023-08-30T10:47:31;9.77;;;7.70;;
13807;SDS011;40769;51.512;5.494;2023-08-30T10:50:12;7.97;;;7.38;;
13807;SDS011;40769;51.512;5.494;2023-08-30T10:52:38;8.55;;;7.85;;
13807;SDS011;40769;51.512;5.494;2023-08-30T10:57:41;9.15;;;8.35;;
13807;SDS011;40769;51.512;5.494;2023-08-30T11:02:47;7.25;;;6.75;;
13807;SDS011;40769;51.512;5.494;2023-08-30T11:05:18;7.90;;;7.22;;
13807;SDS011;40769;51.512;5.494;2023-08-30T11:07:46;6.85;;;6.32;;
13807;SDS011;40769;51.512;5.494;2023-08-30T11:10:14;6.10;;;5.68;;
13807;SDS011;40769;51.512;5.494;2023-08-30T11:12:40;6.45;;;5.95;;
13807;SDS011;40769;51.512;5.494;2023-08-30T11:15:06;5.22;;;4.82;;
13807;SDS011;40769;51.512;5.494;2023-08-30T11:17:33;6.10;;;5.57;;
13807;SDS011;40769;51.512;5.494;2023-08-30T11:20:09;5.15;;;4.72;;
13807;SDS011;40769;51.512;5.494;2023-08-30T11:22:37;4.47;;;4.07;;
13807;SDS011;40769;51.512;5.494;2023-08-30T11:25:04;4.88;;;4.43;;
13807;SDS011;40769;51.512;5.494;2023-08-30T11:27:32;4.72;;;4.32;;
13807;SDS011;40769;51.512;5.494;2023-08-30T11:29:59;4.55;;;4.15;;
13807;SDS011;40769;51.512;5.494;2023-08-30T11:32:28;4.60;;;4.28;;
13807;SDS011;40769;51.512;5.494;2023-08-30T11:34:57;4.03;;;3.72;;
13807;SDS011;40769;51.512;5.494;2023-08-30T11:37:26;5.20;;;4.80;;
13807;SDS011;40769;51.512;5.494;2023-08-30T11:39:52;4.40;;;4.10;;
13807;SDS011;40769;51.512;5.494;2023-08-30T11:42:20;4.55;;;4.05;;
13807;SDS011;40769;51.512;5.494;2023-08-30T11:44:47;4.13;;;3.00;;
13807;SDS011;40769;51.512;5.494;2023-08-30T11:47:20;4.00;;;2.70;;
13807;SDS011;40769;51.512;5.494;2023-08-30T11:49:49;3.15;;;2.25;;
13807;SDS011;40769;51.512;5.494;2023-08-30T11:52:18;3.38;;;2.20;;
13807;SDS011;40769;51.512;5.494;2023-08-30T11:54:44;3.67;;;2.25;;
13807;SDS011;40769;51.512;5.494;2023-08-30T11:57:14;3.50;;;2.40;;
13807;SDS011;40769;51.512;5.494;2023-08-30T11:59:40;3.47;;;2.50;;
13807;SDS011;40769;51.512;5.494;2023-08-30T12:02:09;2.30;;;2.00;;
13807;SDS011;40769;51.512;5.494;2023-08-30T12:04:41;3.00;;;1.95;;
13807;SDS011;40769;51.512;5.494;2023-08-30T12:07:07;3.63;;;1.92;;
13807;SDS011;40769;51.512;5.494;2023-08-30T12:09:33;3.20;;;2.35;;
13807;SDS011;40769;51.512;5.494;2023-08-30T12:12:06;2.47;;;1.90;;
13807;SDS011;40769;51.512;5.494;2023-08-30T12:14:34;2.67;;;1.70;;
13807;SDS011;40769;51.512;5.494;2023-08-30T12:17:00;3.15;;;2.03;;
13807;SDS011;40769;51.512;5.494;2023-08-30T12:19:27;3.75;;;2.00;;
13807;SDS011;40769;51.512;5.494;2023-08-30T12:21:53;5.15;;;2.08;;
13807;SDS011;40769;51.512;5.494;2023-08-30T12:24:19;2.92;;;1.90;;
13807;SDS011;40769;51.512;5.494;2023-08-30T12:26:44;3.03;;;1.88;;
13807;SDS011;40769;51.512;5.494;2023-08-30T12:29:10;3.08;;;2.17;;
13807;SDS011;40769;51.512;5.494;2023-08-30T12:31:36;2.13;;;1.80;;
13807;SDS011;40769;51.512;5.494;2023-08-30T12:34:02;4.88;;;2.75;;
13807;SDS011;40769;51.512;5.494;2023-08-30T12:36:28;3.28;;;2.38;;
13807;SDS011;40769;51.512;5.494;2023-08-30T12:38:57;5.35;;;2.47;;
13807;SDS011;40769;51.512;5.494;2023-08-30T12:41:23;3.13;;;2.20;;
13807;SDS011;40769;51.512;5.494;2023-08-30T12:43:49;3.40;;;1.98;;
13807;SDS011;40769;51.512;5.494;2023-08-30T12:46:16;3.60;;;2.10;;
13807;SDS011;40769;51.512;5.494;2023-08-30T12:48:42;3.72;;;1.60;;
13807;SDS011;40769;51.512;5.494;2023-08-30T12:51:08;3.13;;;1.98;;
13807;SDS011;40769;51.512;5.494;2023-08-30T12:53:33;5.50;;;1.90;;
13807;SDS011;40769;51.512;5.494;2023-08-30T12:55:59;5.82;;;2.10;;
13807;SDS011;40769;51.512;5.494;2023-08-30T12:58:24;2.45;;;1.80;;
13807;SDS011;40769;51.512;5.494;2023-08-30T13:00:50;2.83;;;1.50;;
13807;SDS011;40769;51.512;5.494;2023-08-30T13:03:16;2.88;;;1.63;;
13807;SDS011;40769;51.512;5.494;2023-08-30T13:05:42;4.32;;;1.98;;
13807;SDS011;40769;51.512;5.494;2023-08-30T13:08:07;3.70;;;1.70;;
13807;SDS011;40769;51.512;5.494;2023-08-30T13:10:33;3.55;;;2.05;;
13807;SDS011;40769;51.512;5.494;2023-08-30T13:12:59;5.90;;;2.10;;
13807;SDS011;40769;51.512;5.494;2023-08-30T13:15:25;2.15;;;1.80;;
13807;SDS011;40769;51.512;5.494;2023-08-30T13:17:50;3.03;;;1.63;;
13807;SDS011;40769;51.512;5.494;2023-08-30T13:20:17;3.28;;;1.90;;
13807;SDS011;40769;51.512;5.494;2023-08-30T13:22:43;5.38;;;1.85;;
13807;SDS011;40769;51.512;5.494;2023-08-30T13:25:09;3.25;;;1.63;;
13807;SDS011;40769;51.512;5.494;2023-08-30T13:27:34;2.88;;;1.40;;
13807;SDS011;40769;51.512;5.494;2023-08-30T13:30:00;3.70;;;1.73;;
13807;SDS011;40769;51.512;5.494;2023-08-30T13:32:26;3.22;;;1.33;;
13807;SDS011;40769;51.512;5.494;2023-08-30T13:34:52;3.47;;;1.80;;
13807;SDS011;40769;51.512;5.494;2023-08-30T13:37:17;3.58;;;1.50;;
13807;SDS011;40769;51.512;5.494;2023-08-30T13:39:43;3.55;;;1.80;;
13807;SDS011;40769;51.512;5.494;2023-08-30T13:42:09;2.40;;;1.50;;
13807;SDS011;40769;51.512;5.494;2023-08-30T13:44:35;3.28;;;1.40;;
13807;SDS011;40769;51.512;5.494;2023-08-30T13:47:02;4.00;;;1.63;;
13807;SDS011;40769;51.512;5.494;2023-08-30T13:49:29;4.15;;;1.80;;
13807;SDS011;40769;51.512;5.494;2023-08-30T13:51:56;2.63;;;1.35;;
13807;SDS011;40769;51.512;5.494;2023-08-30T13:54:22;2.40;;;1.27;;
13807;SDS011;40769;51.512;5.494;2023-08-30T13:56:48;2.17;;;1.48;;
13807;SDS011;40769;51.512;5.494;2023-08-30T13:59:14;1.85;;;1.20;;
13807;SDS011;40769;51.512;5.494;2023-08-30T14:01:40;2.38;;;1.42;;
13807;SDS011;40769;51.512;5.494;2023-08-30T14:04:07;4.07;;;1.40;;
13807;SDS011;40769;51.512;5.494;2023-08-30T14:06:33;1.85;;;1.30;;
13807;SDS011;40769;51.512;5.494;2023-08-30T14:08:59;3.10;;;1.45;;
13807;SDS011;40769;51.512;5.494;2023-08-30T14:11:24;2.28;;;1.17;;
13807;SDS011;40769;51.512;5.494;2023-08-30T14:13:50;1.95;;;1.13;;
13807;SDS011;40769;51.512;5.494;2023-08-30T14:16:16;3.00;;;1.17;;
13807;SDS011;40769;51.512;5.494;2023-08-30T14:18:42;1.98;;;1.10;;
13807;SDS011;40769;51.512;5.494;2023-08-30T14:21:09;2.78;;;1.35;;
13807;SDS011;40769;51.512;5.494;2023-08-30T14:23:35;1.80;;;0.93;;
13807;SDS011;40769;51.512;5.494;2023-08-30T14:26:04;1.88;;;0.98;;
13807;SDS011;40769;51.512;5.494;2023-08-30T14:28:38;1.92;;;1.23;;
13807;SDS011;40769;51.512;5.494;2023-08-30T14:31:07;3.47;;;1.27;;
13807;SDS011;40769;51.512;5.494;2023-08-30T14:33:34;1.60;;;1.00;;
13807;SDS011;40769;51.512;5.494;2023-08-30T14:35:59;2.85;;;1.50;;
13807;SDS011;40769;51.512;5.494;2023-08-30T14:38:27;3.88;;;1.10;;
13807;SDS011;40769;51.512;5.494;2023-08-30T14:40:59;3.35;;;1.20;;
13807;SDS011;40769;51.512;5.494;2023-08-30T14:43:26;2.78;;;1.13;;
13807;SDS011;40769;51.512;5.494;2023-08-30T14:45:58;2.70;;;1.30;;
13807;SDS011;40769;51.512;5.494;2023-08-30T14:48:31;2.22;;;1.30;;
13807;SDS011;40769;51.512;5.494;2023-08-30T14:50:58;1.70;;;1.10;;
13807;SDS011;40769;51.512;5.494;2023-08-30T14:53:24;2.45;;;1.08;;